Hovedside
METAR-TAF:

METAR-TAF

Lufthavner :

Bagdad, Irak

breddegrad: 33-15-45N, lengdegrad: 44-14-04E, høyde over havet: 35 m

Gjeldene værobservasjon

Denne rapporten ble laget for 17 minutter siden, klokken 11:00 UTC
Vind 11 kt fra Vest-nordvest, skiftende mellom Vest og Nord-nordvest
Temperatur 41°C
Luftfuktighet 18%
Trykk 1006 hPa
Sikt 10 km eller mer
ingen skyer under 1500 m og ingen bygeskyer

METAR: ORBI 201100Z 30011KT 270V330 CAVOK 41/12 Q1006 NOSIG

Tid: 14:17 (11:17 UTC)

Varsel

Denne rapporten ble laget for 7 timer og 17 minutter siden, klokken 04:00 UTC
Varsel gyldig fra 20. klokken 06 UTC til 21. klokken 06 UTC
Vind 4 kt fra Nordvest
Sikt: 8000 m

TAF: ORBI 200400Z 2006/2106 32004KT 8000 NSC

Værobservasjoner og værvarsel for over 4000 flyplasser (METAR- og TAF-rapporter).

Tilgjengelige stasjoner er representert av de røde og gule prikkene på kartet.

Hold musepekeren over prikken for å se navnet på stasjonen.

Klikk så for å se værobservasjoner og -varsler.

For å forandre kartet kan du klikke på den grønne knappen med svart kryss for å zoome inn, på den grønne knappen med strek for å zoome ut, eller på de grønne pilene for å se tilstøtende kart.


METAR-TAF: